Time;durP1;ratioP1;P1;durP2;ratioP2;P2;SDS_P1;SDS_P2;PMS_P1;PMS_P2;Temp;Humidity;BMP_temperature;BMP_pressure;BME280_temperature;BME280_humidity;BME280_pressure;Samples;Min_cycle;Max_cycle;Signal;HPM_P1;HPM_P2
2023/12/11 00:01:09;;;;;;;52.13;6.55;;;;;;;;;;4899124;29;20471;-76
2023/12/11 00:03:35;;;;;;;62.95;9.00;;;;;;;;;;4897425;29;20045;-79
2023/12/11 00:06:01;;;;;;;59.72;8.35;;;;;;;;;;4914605;29;20115;-77
2023/12/11 00:08:27;;;;;;;52.05;7.72;;;;;;;;;;4908282;29;20486;-79
2023/12/11 00:10:53;;;;;;;67.10;7.53;;;;;;;;;;4896996;29;20115;-76
2023/12/11 00:13:20;;;;;;;51.00;6.50;;;;;;;;;;4908286;29;20040;-78
2023/12/11 00:15:46;;;;;;;53.17;6.95;;;;;;;;;;4904615;29;20096;-77
2023/12/11 00:18:12;;;;;;;53.17;7.95;;;;;;;;;;4908761;29;20140;-78
2023/12/11 00:20:38;;;;;;;52.47;8.65;;;;;;;;;;4922283;29;20060;-80
2023/12/11 00:23:04;;;;;;;61.90;8.30;;;;;;;;;;4910588;29;20035;-81
2023/12/11 00:25:32;;;;;;;55.45;8.07;;;;;;;;;;4903346;29;20489;-78
2023/12/11 00:27:58;;;;;;;50.35;6.40;;;;;;;;;;4911096;29;20040;-79
2023/12/11 00:30:24;;;;;;;44.38;6.70;;;;;;;;;;4912144;29;20059;-78
2023/12/11 00:32:50;;;;;;;47.47;8.23;;;;;;;;;;4914281;29;20032;-78
2023/12/11 00:35:16;;;;;;;48.20;5.95;;;;;;;;;;4897083;29;20043;-77
2023/12/11 00:37:43;;;;;;;54.22;8.80;;;;;;;;;;4896470;29;20032;-76
2023/12/11 00:40:09;;;;;;;47.42;7.35;;;;;;;;;;4904608;29;20394;-78
2023/12/11 00:42:35;;;;;;;52.50;8.32;;;;;;;;;;4907635;29;20386;-76
2023/12/11 00:45:01;;;;;;;59.50;7.82;;;;;;;;;;4901202;29;20134;-77
2023/12/11 00:47:27;;;;;;;50.15;6.45;;;;;;;;;;4914550;29;20044;-76
2023/12/11 00:49:53;;;;;;;39.42;6.40;;;;;;;;;;4905551;29;20036;-77
2023/12/11 00:52:19;;;;;;;50.03;7.50;;;;;;;;;;4902261;29;20036;-76
2023/12/11 00:54:45;;;;;;;45.75;7.40;;;;;;;;;;4906567;29;20482;-76
2023/12/11 00:57:11;;;;;;;61.50;7.38;;;;;;;;;;4895826;29;20040;-76
2023/12/11 00:59:38;;;;;;;37.90;6.60;;;;;;;;;;4908411;29;20505;-80
2023/12/11 01:02:05;;;;;;;61.00;8.45;;;;;;;;;;4922181;29;20036;-79
2023/12/11 01:04:31;;;;;;;50.53;7.03;;;;;;;;;;4903191;29;20075;-79
2023/12/11 01:06:57;;;;;;;40.95;6.95;;;;;;;;;;4896643;29;20028;-83
2023/12/11 01:09:23;;;;;;;38.38;6.82;;;;;;;;;;4914170;29;20486;-76
2023/12/11 01:11:49;;;;;;;54.83;8.52;;;;;;;;;;4908314;29;20431;-77
2023/12/11 01:14:15;;;;;;;51.58;7.88;;;;;;;;;;4897022;29;20123;-80
2023/12/11 01:16:41;;;;;;;47.47;8.77;;;;;;;;;;4912360;29;20031;-76
2023/12/11 01:19:07;;;;;;;46.28;7.68;;;;;;;;;;4914252;29;20032;-75
2023/12/11 01:21:33;;;;;;;45.22;5.82;;;;;;;;;;4907538;29;20036;-76
2023/12/11 01:23:59;;;;;;;45.83;6.55;;;;;;;;;;4895336;29;20103;-78
2023/12/11 01:26:25;;;;;;;56.50;9.27;;;;;;;;;;4902523;29;20040;-77
2023/12/11 01:28:52;;;;;;;38.40;5.38;;;;;;;;;;4896809;29;20047;-76
2023/12/11 01:31:18;;;;;;;54.22;8.48;;;;;;;;;;4899564;29;20043;-76
2023/12/11 01:33:44;;;;;;;45.78;5.93;;;;;;;;;;4916247;29;20037;-77
2023/12/11 01:36:10;;;;;;;52.90;7.53;;;;;;;;;;4894872;29;20081;-78
2023/12/11 01:38:36;;;;;;;49.38;6.38;;;;;;;;;;4898112;29;20454;-80
2023/12/11 01:41:02;;;;;;;56.47;8.35;;;;;;;;;;4909310;29;20022;-79
2023/12/11 01:43:28;;;;;;;48.25;6.32;;;;;;;;;;4910505;29;20108;-83
2023/12/11 01:46:04;;;;;;;51.05;7.55;;;;;;;;;;4912464;29;20052;-76
2023/12/11 01:48:30;;;;;;;53.10;7.07;;;;;;;;;;4907074;29;20034;-80
2023/12/11 01:50:56;;;;;;;42.15;6.50;;;;;;;;;;4902551;29;20044;-78
2023/12/11 01:53:22;;;;;;;48.38;6.53;;;;;;;;;;4900865;29;20101;-78
2023/12/11 01:55:49;;;;;;;47.95;8.40;;;;;;;;;;4900336;29;20048;-77
2023/12/11 01:58:16;;;;;;;46.35;7.80;;;;;;;;;;4916625;29;20033;-77
2023/12/11 02:00:42;;;;;;;42.85;7.30;;;;;;;;;;4908178;29;20028;-77
2023/12/11 02:03:09;;;;;;;60.55;7.90;;;;;;;;;;4908376;29;20044;-76
2023/12/11 02:05:35;;;;;;;58.22;8.07;;;;;;;;;;4917520;29;20037;-75
2023/12/11 02:08:01;;;;;;;46.13;6.88;;;;;;;;;;4904890;29;20043;-75
2023/12/11 02:10:28;;;;;;;44.20;6.65;;;;;;;;;;4903333;29;20039;-76
2023/12/11 02:12:54;;;;;;;52.55;7.65;;;;;;;;;;4901098;29;20036;-78
2023/12/11 02:15:39;;;;;;;65.00;8.38;;;;;;;;;;4913464;29;20047;-77
2023/12/11 02:18:05;;;;;;;57.55;8.32;;;;;;;;;;4917429;29;20049;-77
2023/12/11 02:20:32;;;;;;;54.58;8.02;;;;;;;;;;4912766;29;20042;-76
2023/12/11 02:23:01;;;;;;;48.45;9.48;;;;;;;;;;4903776;29;20032;-76
2023/12/11 02:25:30;;;;;;;64.30;7.63;;;;;;;;;;4908726;29;20485;-86
2023/12/11 02:27:56;;;;;;;47.13;7.28;;;;;;;;;;4900745;29;20044;-84
2023/12/11 02:30:22;;;;;;;53.28;9.45;;;;;;;;;;4899963;29;20389;-75
2023/12/11 02:32:51;;;;;;;57.83;7.60;;;;;;;;;;4916308;29;20096;-78
2023/12/11 02:35:17;;;;;;;62.33;7.80;;;;;;;;;;4896742;29;20116;-75
2023/12/11 02:37:43;;;;;;;63.30;9.57;;;;;;;;;;4910985;29;20045;-77
2023/12/11 02:40:09;;;;;;;54.08;7.05;;;;;;;;;;4897831;29;20025;-76
2023/12/11 02:42:35;;;;;;;61.35;9.02;;;;;;;;;;4901408;29;20031;-76
2023/12/11 02:45:01;;;;;;;56.97;6.75;;;;;;;;;;4905162;29;20039;-76
2023/12/11 02:47:28;;;;;;;50.20;7.60;;;;;;;;;;4931838;29;20067;-80
2023/12/11 02:49:54;;;;;;;64.72;9.98;;;;;;;;;;4909849;29;20449;-80
2023/12/11 02:52:20;;;;;;;53.05;8.70;;;;;;;;;;4902338;29;20029;-84
2023/12/11 02:54:46;;;;;;;42.47;6.50;;;;;;;;;;4905856;29;20534;-76
2023/12/11 02:57:12;;;;;;;51.28;7.40;;;;;;;;;;4909366;29;20063;-79
2023/12/11 02:59:38;;;;;;;55.63;7.65;;;;;;;;;;4905181;29;20036;-76
2023/12/11 03:02:04;;;;;;;67.57;9.23;;;;;;;;;;4929041;29;20031;-78
2023/12/11 03:04:30;;;;;;;61.72;8.25;;;;;;;;;;4911207;29;20040;-77
2023/12/11 03:06:56;;;;;;;55.88;8.48;;;;;;;;;;4908408;29;20078;-76
2023/12/11 03:09:22;;;;;;;66.32;8.52;;;;;;;;;;4916237;29;20087;-82
2023/12/11 03:11:48;;;;;;;56.35;8.75;;;;;;;;;;4903521;29;20039;-75
2023/12/11 03:14:14;;;;;;;63.65;9.68;;;;;;;;;;4911188;29;20088;-76
2023/12/11 03:16:40;;;;;;;42.83;5.72;;;;;;;;;;4912590;29;20040;-76
2023/12/11 03:19:06;;;;;;;60.53;7.95;;;;;;;;;;4907986;29;20032;-74
2023/12/11 03:21:32;;;;;;;71.28;10.27;;;;;;;;;;4897866;29;20048;-76
2023/12/11 03:23:58;;;;;;;69.13;10.13;;;;;;;;;;4900598;29;20075;-75
2023/12/11 03:26:24;;;;;;;59.50;8.82;;;;;;;;;;4910617;29;20059;-83
2023/12/11 03:28:51;;;;;;;60.58;9.18;;;;;;;;;;4907522;29;20044;-76
2023/12/11 03:31:17;;;;;;;62.00;9.98;;;;;;;;;;4912636;29;20039;-76
2023/12/11 03:33:43;;;;;;;78.80;10.70;;;;;;;;;;4915422;29;20047;-76
2023/12/11 03:36:09;;;;;;;72.78;10.45;;;;;;;;;;4909411;29;20048;-75
2023/12/11 03:38:35;;;;;;;57.20;8.48;;;;;;;;;;4912278;29;20029;-76
2023/12/11 03:41:01;;;;;;;59.35;10.52;;;;;;;;;;4915728;29;20032;-78
2023/12/11 03:43:27;;;;;;;62.22;8.75;;;;;;;;;;4915191;29;20036;-78
2023/12/11 03:45:57;;;;;;;48.58;6.95;;;;;;;;;;4914053;29;20114;-74
2023/12/11 03:48:23;;;;;;;50.90;7.70;;;;;;;;;;4899050;29;20037;-74
2023/12/11 03:50:50;;;;;;;64.95;9.38;;;;;;;;;;4910625;29;20025;-75
2023/12/11 03:53:16;;;;;;;55.58;10.20;;;;;;;;;;4910504;29;20040;-79
2023/12/11 03:55:42;;;;;;;58.15;7.90;;;;;;;;;;4903630;29;20088;-85
2023/12/11 03:58:08;;;;;;;48.00;7.32;;;;;;;;;;4906284;29;20068;-79
2023/12/11 04:00:34;;;;;;;59.22;7.43;;;;;;;;;;4917310;29;20039;-76
2023/12/11 04:03:00;;;;;;;49.83;7.53;;;;;;;;;;4901516;29;20051;-81
2023/12/11 04:05:26;;;;;;;65.15;7.47;;;;;;;;;;4910472;29;20040;-77
2023/12/11 04:07:52;;;;;;;61.65;8.15;;;;;;;;;;4905395;29;20039;-76
2023/12/11 04:10:19;;;;;;;57.40;8.80;;;;;;;;;;4911779;29;20024;-76
2023/12/11 04:12:45;;;;;;;46.85;9.20;;;;;;;;;;4904377;29;20056;-83
2023/12/11 04:15:11;;;;;;;67.72;9.98;;;;;;;;;;4905134;29;20104;-76
2023/12/11 04:17:37;;;;;;;63.50;6.82;;;;;;;;;;4910977;29;20071;-76
2023/12/11 04:20:04;;;;;;;48.70;7.78;;;;;;;;;;4910858;29;20048;-76
2023/12/11 04:22:30;;;;;;;65.30;8.75;;;;;;;;;;4908526;29;20466;-77
2023/12/11 04:24:56;;;;;;;63.60;8.90;;;;;;;;;;4913518;29;20032;-77
2023/12/11 04:27:22;;;;;;;44.97;6.07;;;;;;;;;;4906349;29;20032;-74
2023/12/11 04:29:48;;;;;;;46.70;6.45;;;;;;;;;;4905348;29;20056;-75
2023/12/11 04:32:14;;;;;;;50.60;7.78;;;;;;;;;;4909588;29;20043;-78
2023/12/11 04:34:40;;;;;;;49.22;6.47;;;;;;;;;;4914735;29;20192;-76
2023/12/11 04:37:07;;;;;;;44.28;7.40;;;;;;;;;;4912291;29;20035;-76
2023/12/11 04:39:33;;;;;;;51.78;7.70;;;;;;;;;;4925547;29;20040;-75
2023/12/11 04:41:59;;;;;;;45.42;7.03;;;;;;;;;;4912879;29;20032;-76
2023/12/11 04:44:25;;;;;;;49.47;8.55;;;;;;;;;;4911672;29;20130;-75
2023/12/11 04:46:51;;;;;;;49.72;6.88;;;;;;;;;;4906135;29;20032;-75
2023/12/11 04:49:17;;;;;;;52.60;6.57;;;;;;;;;;4908260;29;20063;-77
2023/12/11 04:51:43;;;;;;;56.13;8.30;;;;;;;;;;4906244;29;20039;-76
2023/12/11 04:54:09;;;;;;;56.47;8.40;;;;;;;;;;4918449;29;20043;-78
2023/12/11 04:56:35;;;;;;;45.13;6.70;;;;;;;;;;4910651;29;20040;-73
2023/12/11 04:59:01;;;;;;;42.70;5.78;;;;;;;;;;4903921;29;20036;-78
2023/12/11 05:01:27;;;;;;;41.72;5.88;;;;;;;;;;4917528;29;20031;-75
2023/12/11 05:03:53;;;;;;;47.75;7.38;;;;;;;;;;4911921;29;20906;-74
2023/12/11 05:06:20;;;;;;;36.38;5.57;;;;;;;;;;4913226;29;20219;-75
2023/12/11 05:08:46;;;;;;;48.35;6.63;;;;;;;;;;4919440;29;20402;-84
2023/12/11 05:11:12;;;;;;;50.67;6.85;;;;;;;;;;4904947;29;20414;-79
2023/12/11 05:13:38;;;;;;;53.60;8.90;;;;;;;;;;4906539;29;20040;-75
2023/12/11 05:16:04;;;;;;;36.10;5.95;;;;;;;;;;4901414;29;20047;-83
2023/12/11 05:18:30;;;;;;;39.38;6.18;;;;;;;;;;4906146;29;20028;-76
2023/12/11 05:20:57;;;;;;;50.85;7.95;;;;;;;;;;4906290;29;20738;-75
2023/12/11 05:23:23;;;;;;;37.15;6.28;;;;;;;;;;4907327;29;20072;-75
2023/12/11 05:25:49;;;;;;;50.28;6.45;;;;;;;;;;4908586;29;20371;-81
2023/12/11 05:28:15;;;;;;;39.63;6.72;;;;;;;;;;4906907;29;20115;-78
2023/12/11 05:30:41;;;;;;;34.72;5.05;;;;;;;;;;4910313;29;20055;-76
2023/12/11 05:33:07;;;;;;;47.40;6.88;;;;;;;;;;4909709;29;20043;-75
2023/12/11 05:35:33;;;;;;;37.78;4.90;;;;;;;;;;4908935;29;20048;-83
2023/12/11 05:37:59;;;;;;;46.90;6.55;;;;;;;;;;4911319;29;20387;-74
2023/12/11 05:40:25;;;;;;;47.28;8.18;;;;;;;;;;4904591;29;20137;-81
2023/12/11 05:42:51;;;;;;;43.67;7.05;;;;;;;;;;4904944;29;20024;-75
2023/12/11 05:45:17;;;;;;;43.63;6.78;;;;;;;;;;4906677;29;20036;-82
2023/12/11 05:47:43;;;;;;;37.95;5.70;;;;;;;;;;4906443;29;20117;-77
2023/12/11 05:50:10;;;;;;;58.28;8.23;;;;;;;;;;4910172;29;20035;-77
2023/12/11 05:52:36;;;;;;;48.00;6.38;;;;;;;;;;4906382;29;20083;-80
2023/12/11 05:55:02;;;;;;;46.17;8.13;;;;;;;;;;4903934;29;20039;-76
2023/12/11 05:57:28;;;;;;;60.50;7.00;;;;;;;;;;4909090;29;20024;-75
2023/12/11 05:59:54;;;;;;;38.17;5.90;;;;;;;;;;4908363;29;20356;-74
2023/12/11 06:02:20;;;;;;;40.35;5.43;;;;;;;;;;4902310;29;20028;-78
2023/12/11 06:04:46;;;;;;;40.13;6.57;;;;;;;;;;4910391;29;20032;-79
2023/12/11 06:07:12;;;;;;;35.83;6.60;;;;;;;;;;4907474;29;20032;-77
2023/12/11 06:09:38;;;;;;;48.35;7.32;;;;;;;;;;4909361;29;20116;-75
2023/12/11 06:12:05;;;;;;;46.05;6.97;;;;;;;;;;4906393;29;20037;-75
2023/12/11 06:14:31;;;;;;;50.38;7.57;;;;;;;;;;4910690;29;20039;-75
2023/12/11 06:16:57;;;;;;;47.33;7.32;;;;;;;;;;4906793;29;20032;-81
2023/12/11 06:19:23;;;;;;;46.90;7.00;;;;;;;;;;4907525;29;20638;-74
2023/12/11 06:21:49;;;;;;;50.60;6.82;;;;;;;;;;4902944;29;20036;-79
2023/12/11 06:24:16;;;;;;;48.90;6.07;;;;;;;;;;4904884;29;20043;-75
2023/12/11 06:26:42;;;;;;;56.90;7.63;;;;;;;;;;4907356;29;20537;-80
2023/12/11 06:29:08;;;;;;;52.92;7.82;;;;;;;;;;4907210;29;20032;-79
2023/12/11 06:31:34;;;;;;;34.50;5.78;;;;;;;;;;4909567;29;20062;-75
2023/12/11 06:34:00;;;;;;;40.75;5.72;;;;;;;;;;4902685;29;20112;-78
2023/12/11 06:36:28;;;;;;;56.65;6.43;;;;;;;;;;4907140;29;20043;-84
2023/12/11 06:38:54;;;;;;;48.42;6.05;;;;;;;;;;4912878;29;20402;-76
2023/12/11 06:41:20;;;;;;;30.52;5.65;;;;;;;;;;4911419;29;20124;-77
2023/12/11 06:43:52;;;;;;;41.40;5.65;;;;;;;;;;4905670;29;20032;-75
2023/12/11 06:46:19;;;;;;;30.38;5.43;;;;;;;;;;4904995;29;20573;-75
2023/12/11 06:48:45;;;;;;;41.70;5.25;;;;;;;;;;4902821;29;20545;-77
2023/12/11 06:51:11;;;;;;;39.17;4.88;;;;;;;;;;4911737;29;20033;-74
2023/12/11 06:53:37;;;;;;;47.10;5.25;;;;;;;;;;4902664;29;20071;-74
2023/12/11 06:56:03;;;;;;;36.03;4.75;;;;;;;;;;4902970;29;20055;-80
2023/12/11 06:58:30;;;;;;;36.55;5.47;;;;;;;;;;4908544;29;20035;-76
2023/12/11 07:00:56;;;;;;;28.63;5.38;;;;;;;;;;4908992;29;20039;-75
2023/12/11 07:03:22;;;;;;;36.42;4.15;;;;;;;;;;4906908;29;20055;-81
2023/12/11 07:05:48;;;;;;;37.67;4.63;;;;;;;;;;4911767;29;20043;-75
2023/12/11 07:08:14;;;;;;;33.50;4.72;;;;;;;;;;4905968;29;20096;-75
2023/12/11 07:10:40;;;;;;;32.35;4.32;;;;;;;;;;4904866;29;20024;-75
2023/12/11 07:13:06;;;;;;;36.67;5.28;;;;;;;;;;4903950;29;20071;-76
2023/12/11 07:15:33;;;;;;;34.00;6.35;;;;;;;;;;4902978;29;20044;-74
2023/12/11 07:17:59;;;;;;;25.63;4.57;;;;;;;;;;4903251;29;20120;-75
2023/12/11 07:20:25;;;;;;;30.73;4.38;;;;;;;;;;4903464;29;20039;-75
2023/12/11 07:22:51;;;;;;;29.25;4.03;;;;;;;;;;4904712;29;20386;-75
2023/12/11 07:25:17;;;;;;;31.67;4.65;;;;;;;;;;4910361;29;20028;-75
2023/12/11 07:27:43;;;;;;;34.42;4.95;;;;;;;;;;4904811;29;20037;-77
2023/12/11 07:30:11;;;;;;;35.00;5.55;;;;;;;;;;4905968;29;20032;-78
2023/12/11 07:32:37;;;;;;;25.52;4.05;;;;;;;;;;4912304;29;20043;-76
2023/12/11 07:35:03;;;;;;;30.05;4.70;;;;;;;;;;4907329;29;20173;-77
2023/12/11 07:37:29;;;;;;;20.95;3.83;;;;;;;;;;4908858;29;20163;-76
2023/12/11 07:39:56;;;;;;;23.58;3.70;;;;;;;;;;4911733;29;20028;-78
2023/12/11 07:42:22;;;;;;;24.60;3.40;;;;;;;;;;4914418;29;20036;-76
2023/12/11 07:44:48;;;;;;;33.53;3.50;;;;;;;;;;4910047;29;20032;-80
2023/12/11 07:47:14;;;;;;;25.38;3.13;;;;;;;;;;4909750;29;20036;-73
2023/12/11 07:49:40;;;;;;;32.50;4.78;;;;;;;;;;4910962;29;20071;-75
2023/12/11 07:52:06;;;;;;;35.33;10.02;;;;;;;;;;4910906;29;20399;-77
2023/12/11 07:54:32;;;;;;;29.48;4.88;;;;;;;;;;4897454;29;20059;-75
2023/12/11 07:56:58;;;;;;;25.42;4.47;;;;;;;;;;4904277;29;20029;-75
2023/12/11 07:59:24;;;;;;;26.25;3.78;;;;;;;;;;4910987;29;20096;-75
2023/12/11 08:01:52;;;;;;;19.92;3.78;;;;;;;;;;4922977;29;20043;-76
2023/12/11 08:04:19;;;;;;;31.10;4.97;;;;;;;;;;4912791;29;20050;-76
2023/12/11 08:06:45;;;;;;;24.60;3.63;;;;;;;;;;4909684;29;20037;-76
2023/12/11 08:09:11;;;;;;;29.35;4.60;;;;;;;;;;4909191;29;20032;-77
2023/12/11 08:11:37;;;;;;;30.77;4.20;;;;;;;;;;4907633;29;20047;-73
2023/12/11 08:14:03;;;;;;;23.37;3.90;;;;;;;;;;4910792;29;20040;-75
2023/12/11 08:16:29;;;;;;;34.03;6.30;;;;;;;;;;4909141;29;20095;-74
2023/12/11 08:18:56;;;;;;;25.83;5.13;;;;;;;;;;4907115;29;20059;-75
2023/12/11 08:21:22;;;;;;;64.45;26.88;;;;;;;;;;4904371;29;20040;-74
2023/12/11 08:23:48;;;;;;;230.82;140.32;;;;;;;;;;4904010;29;20044;-73
2023/12/11 08:26:20;;;;;;;30.05;5.28;;;;;;;;;;4907074;29;20395;-76
2023/12/11 08:28:47;;;;;;;29.30;6.20;;;;;;;;;;4909832;29;20107;-74
2023/12/11 08:31:13;;;;;;;23.65;4.95;;;;;;;;;;4905987;29;20036;-77
2023/12/11 08:33:39;;;;;;;33.55;6.43;;;;;;;;;;4908316;29;20025;-75
2023/12/11 08:36:06;;;;;;;27.42;4.57;;;;;;;;;;4905461;29;20097;-75
2023/12/11 08:38:32;;;;;;;31.10;4.85;;;;;;;;;;4910206;29;20036;-75
2023/12/11 08:40:59;;;;;;;31.25;4.93;;;;;;;;;;4905815;29;20041;-75
2023/12/11 08:43:26;;;;;;;37.47;4.22;;;;;;;;;;4906412;29;20035;-77
2023/12/11 08:45:52;;;;;;;27.95;4.63;;;;;;;;;;4902845;29;20116;-76
2023/12/11 08:48:18;;;;;;;32.22;5.10;;;;;;;;;;4916645;29;20428;-75
2023/12/11 08:50:44;;;;;;;33.75;5.28;;;;;;;;;;4910756;29;20028;-74
2023/12/11 08:53:10;;;;;;;25.48;3.67;;;;;;;;;;4906323;29;20294;-74
2023/12/11 08:55:36;;;;;;;27.63;4.22;;;;;;;;;;4905054;29;20087;-77
2023/12/11 08:58:03;;;;;;;27.52;4.18;;;;;;;;;;4908091;29;20043;-75
2023/12/11 09:00:29;;;;;;;33.70;7.82;;;;;;;;;;4909152;29;20031;-79
2023/12/11 09:02:55;;;;;;;30.83;5.15;;;;;;;;;;4907320;29;20071;-75
2023/12/11 09:05:21;;;;;;;28.83;3.85;;;;;;;;;;4904121;29;20414;-73
2023/12/11 09:07:47;;;;;;;28.63;4.85;;;;;;;;;;4905317;29;20076;-75
2023/12/11 09:10:13;;;;;;;22.63;3.88;;;;;;;;;;4911716;29;20115;-75
2023/12/11 09:12:39;;;;;;;28.13;3.45;;;;;;;;;;4907476;29;20497;-75
2023/12/11 09:15:06;;;;;;;35.95;5.00;;;;;;;;;;4909280;29;20128;-74
2023/12/11 09:17:32;;;;;;;26.88;3.50;;;;;;;;;;4909367;29;20028;-74
2023/12/11 09:19:58;;;;;;;20.00;3.78;;;;;;;;;;4902561;29;20044;-72
2023/12/11 09:22:25;;;;;;;17.02;2.88;;;;;;;;;;4908898;29;20047;-73
2023/12/11 09:24:51;;;;;;;20.75;3.00;;;;;;;;;;4903820;29;20032;-71
2023/12/11 09:27:17;;;;;;;29.33;3.72;;;;;;;;;;4911073;29;20028;-73
2023/12/11 09:29:43;;;;;;;27.38;3.17;;;;;;;;;;4902510;29;20084;-77
2023/12/11 09:32:09;;;;;;;29.10;3.25;;;;;;;;;;4906574;29;20032;-71
2023/12/11 09:34:35;;;;;;;24.08;3.10;;;;;;;;;;4905975;29;20032;-73
2023/12/11 09:37:01;;;;;;;21.90;2.17;;;;;;;;;;4908937;29;20020;-72
2023/12/11 09:39:27;;;;;;;16.33;2.60;;;;;;;;;;4902815;29;20079;-76
2023/12/11 09:41:53;;;;;;;16.02;3.00;;;;;;;;;;4903100;29;20040;-71
2023/12/11 09:44:20;;;;;;;21.73;2.50;;;;;;;;;;4901633;29;20231;-74
2023/12/11 09:47:02;;;;;;;15.90;2.53;;;;;;;;;;4908462;29;20037;-71
2023/12/11 09:49:29;;;;;;;45.15;15.05;;;;;;;;;;4903078;29;20088;-71
2023/12/11 09:51:55;;;;;;;23.42;4.28;;;;;;;;;;4919585;29;20039;-74
2023/12/11 09:54:21;;;;;;;26.52;2.83;;;;;;;;;;4903076;29;20137;-71
2023/12/11 09:56:47;;;;;;;27.30;3.25;;;;;;;;;;4900230;29;20697;-74
2023/12/11 09:59:15;;;;;;;33.15;4.05;;;;;;;;;;4905017;29;20078;-75
2023/12/11 10:01:41;;;;;;;29.40;3.85;;;;;;;;;;4906578;29;20046;-73
2023/12/11 10:04:08;;;;;;;27.83;3.45;;;;;;;;;;4901428;29;20058;-73
2023/12/11 10:06:34;;;;;;;27.80;3.95;;;;;;;;;;4903221;29;20119;-75
2023/12/11 10:09:00;;;;;;;37.83;5.07;;;;;;;;;;4915794;29;20486;-75
2023/12/11 10:11:28;;;;;;;32.67;3.97;;;;;;;;;;4907870;29;20435;-75
2023/12/11 10:13:54;;;;;;;36.17;5.03;;;;;;;;;;4900466;29;20690;-73
2023/12/11 10:16:28;;;;;;;36.67;5.03;;;;;;;;;;4902525;29;20051;-73
2023/12/11 10:18:54;;;;;;;25.05;4.28;;;;;;;;;;4904658;29;20063;-73
2023/12/11 10:21:20;;;;;;;42.97;4.95;;;;;;;;;;4901362;29;20025;-75
2023/12/11 10:24:07;;;;;;;30.38;4.15;;;;;;;;;;4906452;29;20028;-74
2023/12/11 10:26:33;;;;;;;26.35;3.75;;;;;;;;;;4904712;29;20044;-74
2023/12/11 10:29:20;;;;;;;36.78;3.90;;;;;;;;;;4903176;29;20418;-76
2023/12/11 10:31:46;;;;;;;21.98;4.35;;;;;;;;;;4909058;29;20032;-75
2023/12/11 10:34:12;;;;;;;24.98;3.72;;;;;;;;;;4906823;29;20746;-74
2023/12/11 10:36:49;;;;;;;26.50;3.83;;;;;;;;;;4907063;29;20383;-73
2023/12/11 10:39:15;;;;;;;20.48;3.15;;;;;;;;;;4901099;29;20056;-74
2023/12/11 10:41:44;;;;;;;27.15;4.18;;;;;;;;;;4905732;29;20137;-73
2023/12/11 10:44:19;;;;;;;23.70;2.97;;;;;;;;;;4903742;29;20031;-76
2023/12/11 10:46:45;;;;;;;25.17;3.10;;;;;;;;;;4906301;29;20135;-72
2023/12/11 10:49:11;;;;;;;25.42;4.05;;;;;;;;;;4900825;29;20047;-72
2023/12/11 10:51:37;;;;;;;22.13;3.88;;;;;;;;;;4912857;29;20043;-74
2023/12/11 10:54:04;;;;;;;21.95;4.47;;;;;;;;;;4903552;29;20028;-73
2023/12/11 10:56:30;;;;;;;25.98;5.07;;;;;;;;;;4900219;29;20047;-72
2023/12/11 10:58:58;;;;;;;19.83;2.80;;;;;;;;;;4901253;29;20029;-72
2023/12/11 11:01:24;;;;;;;19.25;2.97;;;;;;;;;;4905240;29;20104;-73
2023/12/11 11:03:50;;;;;;;91.85;63.40;;;;;;;;;;4899368;29;20052;-74
2023/12/11 11:06:16;;;;;;;23.38;5.32;;;;;;;;;;4903476;29;20025;-71
2023/12/11 11:08:55;;;;;;;11.77;2.80;;;;;;;;;;4903417;29;20214;-71
2023/12/11 11:11:31;;;;;;;18.35;2.88;;;;;;;;;;4904242;29;20032;-71
2023/12/11 11:14:16;;;;;;;14.60;2.80;;;;;;;;;;4907878;29;20119;-71
2023/12/11 11:16:51;;;;;;;10.27;1.65;;;;;;;;;;4903680;29;20037;-71
2023/12/11 11:19:17;;;;;;;21.30;3.38;;;;;;;;;;4902717;29;20108;-72
2023/12/11 11:22:03;;;;;;;17.27;2.15;;;;;;;;;;4898238;29;20044;-72
2023/12/11 11:24:30;;;;;;;19.60;2.70;;;;;;;;;;4903577;29;20123;-72
2023/12/11 11:26:56;;;;;;;24.23;3.80;;;;;;;;;;4909298;29;20510;-71
2023/12/11 11:29:42;;;;;;;31.52;4.15;;;;;;;;;;4909118;29;20036;-71
2023/12/11 11:32:09;;;;;;;30.10;4.53;;;;;;;;;;4902974;29;20499;-78
2023/12/11 11:34:41;;;;;;;55.25;6.60;;;;;;;;;;4913040;29;20047;-73
2023/12/11 11:37:17;;;;;;;39.25;4.72;;;;;;;;;;4908985;29;20111;-76
2023/12/11 11:40:02;;;;;;;38.40;4.30;;;;;;;;;;4898807;29;20047;-71
2023/12/11 11:42:32;;;;;;;32.90;4.22;;;;;;;;;;4909128;29;20359;-73
2023/12/11 11:45:00;;;;;;;33.35;5.85;;;;;;;;;;4908899;29;20102;-84
2023/12/11 11:47:26;;;;;;;30.05;4.70;;;;;;;;;;4913215;29;20025;-77
2023/12/11 11:49:55;;;;;;;35.55;4.00;;;;;;;;;;4909104;29;20115;-75
2023/12/11 11:52:23;;;;;;;22.63;3.60;;;;;;;;;;4899009;29;20040;-76
2023/12/11 11:54:50;;;;;;;19.52;3.70;;;;;;;;;;4901423;29;20040;-71
2023/12/11 11:57:16;;;;;;;21.75;4.13;;;;;;;;;;4907838;29;20080;-72
2023/12/11 11:59:43;;;;;;;22.38;2.90;;;;;;;;;;4902947;29;20062;-72
2023/12/11 12:02:09;;;;;;;22.05;3.83;;;;;;;;;;4909449;29;20040;-81
2023/12/11 12:04:35;;;;;;;21.38;2.92;;;;;;;;;;4908137;29;20069;-77
2023/12/11 12:07:02;;;;;;;20.88;3.08;;;;;;;;;;4903481;29;20040;-73
2023/12/11 12:09:29;;;;;;;22.83;2.92;;;;;;;;;;4906611;29;20037;-70
2023/12/11 12:11:55;;;;;;;24.77;2.92;;;;;;;;;;4911126;29;20842;-74
2023/12/11 12:14:21;;;;;;;18.10;2.20;;;;;;;;;;4909277;29;20040;-72
2023/12/11 12:16:47;;;;;;;16.50;2.17;;;;;;;;;;4901506;29;20132;-72
2023/12/11 12:19:17;;;;;;;16.05;2.25;;;;;;;;;;4902932;29;20047;-70
2023/12/11 12:21:56;;;;;;;15.05;2.20;;;;;;;;;;4909298;29;20032;-78
2023/12/11 12:24:22;;;;;;;10.13;2.42;;;;;;;;;;4910039;29;20031;-72
2023/12/11 12:27:09;;;;;;;19.15;4.57;;;;;;;;;;4914079;29;20035;-71
2023/12/11 12:29:35;;;;;;;18.35;4.25;;;;;;;;;;4912460;29;20036;-71
2023/12/11 12:32:02;;;;;;;21.80;2.65;;;;;;;;;;4913502;29;20040;-73
2023/12/11 12:34:30;;;;;;;12.65;1.63;;;;;;;;;;4903992;29;20036;-72
2023/12/11 12:36:56;;;;;;;15.15;3.03;;;;;;;;;;4912946;29;20032;-73
2023/12/11 12:39:23;;;;;;;15.25;1.98;;;;;;;;;;4903280;29;20088;-70
2023/12/11 12:41:49;;;;;;;12.25;1.88;;;;;;;;;;4898758;29;20036;-74
2023/12/11 12:44:18;;;;;;;12.68;1.80;;;;;;;;;;4906288;29;20111;-73
2023/12/11 12:46:44;;;;;;;10.93;2.35;;;;;;;;;;4904164;29;20032;-73
2023/12/11 12:49:11;;;;;;;8.55;1.58;;;;;;;;;;4903214;29;20029;-74
2023/12/11 12:52:03;;;;;;;9.85;1.90;;;;;;;;;;4897794;29;20494;-79
2023/12/11 12:54:46;;;;;;;8.43;1.20;;;;;;;;;;4902068;29;20036;-72
2023/12/11 12:57:12;;;;;;;5.95;1.52;;;;;;;;;;4912183;29;20469;-73
2023/12/11 12:59:40;;;;;;;6.68;2.25;;;;;;;;;;4906085;29;20028;-73
2023/12/11 13:02:10;;;;;;;8.45;2.78;;;;;;;;;;4906408;29;20032;-72
2023/12/11 13:04:48;;;;;;;8.77;0.98;;;;;;;;;;4909803;29;20028;-76
2023/12/11 13:07:14;;;;;;;11.02;1.05;;;;;;;;;;4900867;29;20071;-73
2023/12/11 13:09:41;;;;;;;9.93;1.27;;;;;;;;;;4901570;29;20040;-72
2023/12/11 13:12:07;;;;;;;8.98;1.73;;;;;;;;;;4900031;29;20036;-75
2023/12/11 13:14:33;;;;;;;19.48;5.93;;;;;;;;;;4901305;29;20076;-74
2023/12/11 13:16:59;;;;;;;15.55;5.70;;;;;;;;;;4907381;29;20066;-71
2023/12/11 13:19:26;;;;;;;11.63;2.30;;;;;;;;;;4896593;29;20127;-73
2023/12/11 13:21:53;;;;;;;10.80;2.17;;;;;;;;;;4905895;29;20552;-73
2023/12/11 13:24:21;;;;;;;11.13;2.22;;;;;;;;;;4908828;29;20059;-74
2023/12/11 13:26:47;;;;;;;10.57;1.35;;;;;;;;;;4899421;29;20025;-71
2023/12/11 13:29:13;;;;;;;4.70;1.45;;;;;;;;;;4902165;29;20036;-73
2023/12/11 13:31:39;;;;;;;7.72;1.05;;;;;;;;;;4909211;29;20027;-72
2023/12/11 13:34:05;;;;;;;8.13;1.40;;;;;;;;;;4907146;29;20381;-73
2023/12/11 13:36:31;;;;;;;9.07;1.40;;;;;;;;;;4899692;29;20056;-71
2023/12/11 13:38:58;;;;;;;11.77;1.40;;;;;;;;;;4905765;29;20029;-72
2023/12/11 13:41:24;;;;;;;11.90;1.48;;;;;;;;;;4903405;29;20096;-70
2023/12/11 13:43:50;;;;;;;11.68;1.40;;;;;;;;;;4907038;29;20100;-70
2023/12/11 13:46:16;;;;;;;12.20;1.38;;;;;;;;;;4902239;29;20038;-70
2023/12/11 13:48:42;;;;;;;11.93;1.50;;;;;;;;;;4905106;29;20052;-71
2023/12/11 13:51:08;;;;;;;7.32;1.42;;;;;;;;;;4899059;29;20028;-79
2023/12/11 13:53:35;;;;;;;11.80;1.45;;;;;;;;;;4908647;29;20363;-70
2023/12/11 13:56:01;;;;;;;8.07;1.48;;;;;;;;;;4903639;29;20075;-70
2023/12/11 13:58:27;;;;;;;8.02;1.10;;;;;;;;;;4901205;29;20060;-75
2023/12/11 14:00:53;;;;;;;9.05;1.25;;;;;;;;;;4903553;29;20040;-72
2023/12/11 14:03:20;;;;;;;8.95;1.10;;;;;;;;;;4899777;29;20052;-71
2023/12/11 14:05:47;;;;;;;4.65;1.10;;;;;;;;;;4908552;29;20043;-70
2023/12/11 14:08:14;;;;;;;8.93;1.48;;;;;;;;;;4911127;29;20039;-72
2023/12/11 14:10:41;;;;;;;14.18;2.05;;;;;;;;;;4901902;29;20475;-71
2023/12/11 14:13:12;;;;;;;31.40;16.58;;;;;;;;;;4904074;29;20100;-76
2023/12/11 14:15:38;;;;;;;4.68;0.88;;;;;;;;;;4899164;29;20112;-75
2023/12/11 14:18:04;;;;;;;9.00;1.35;;;;;;;;;;4906743;29;20151;-75
2023/12/11 14:20:30;;;;;;;5.60;1.08;;;;;;;;;;4907083;29;20773;-75
2023/12/11 14:22:56;;;;;;;15.20;3.22;;;;;;;;;;4908041;29;20554;-77
2023/12/11 14:25:24;;;;;;;5.00;1.20;;;;;;;;;;4907690;29;20075;-74
2023/12/11 14:27:50;;;;;;;8.95;1.17;;;;;;;;;;4908655;29;20032;-76
2023/12/11 14:30:16;;;;;;;8.65;1.70;;;;;;;;;;4903365;29;20394;-77